Time;durP1;ratioP1;P1;durP2;ratioP2;P2;SDS_P1;SDS_P2;PMS_P1;PMS_P2;Temp;Humidity;BMP_temperature;BMP_pressure;BME280_temperature;BME280_humidity;BME280_pressure;Samples;Min_cycle;Max_cycle;Signal;HPM_P1;HPM_P2
2024/03/12 08:17:15;;;;;;;3.10;1.50;;;;;;;4.96;99.87;96503.84;2107034;27;20516;-62
2024/03/12 08:18:16;;;;;;;3.20;1.42;;;;;;;5.02;99.76;96501.13;2107886;28;20701;-62
2024/03/12 08:27:28;;;;;;;3.70;1.52;;;;;;;5.07;98.71;96501.84;2107022;27;20911;-62
2024/03/12 08:34:51;;;;;;;2.80;1.65;;;;;;;5.10;100.00;96511.28;2107024;27;20591;-62
2024/03/12 11:58:01;;;;;;;25.27;11.73;;;;;;;5.85;96.17;96622.44;2106024;27;20528;-63
2024/03/12 12:00:35;;;;;;;27.02;13.02;;;;;;;5.94;94.54;96621.38;2107591;27;20939;-63
2024/03/12 12:03:16;;;;;;;28.50;13.27;;;;;;;5.93;93.70;96628.31;2106771;27;21169;-63
2024/03/12 12:21:43;;;;;;;30.00;13.73;;;;;;;5.82;92.32;96591.44;2107419;27;20578;-60
2024/03/12 12:24:38;;;;;;;32.13;12.40;;;;;;;5.99;91.00;96624.72;2106768;27;20551;-58
2024/03/12 12:27:13;;;;;;;32.60;14.80;;;;;;;6.09;91.18;96633.09;2106876;27;20520;-60
2024/03/12 12:28:17;;;;;;;33.88;14.35;;;;;;;6.15;90.70;96627.75;2102751;28;20233;-60
2024/03/12 12:29:18;;;;;;;32.88;15.95;;;;;;;6.16;89.90;96622.53;2097222;28;20606;-60
2024/03/12 12:30:21;;;;;;;38.15;18.10;;;;;;;6.15;90.34;96607.84;2098674;28;20202;-60
2024/03/12 12:31:27;;;;;;;35.38;16.30;;;;;;;6.28;89.95;96618.72;2097748;28;20324;-60
2024/03/12 12:32:29;;;;;;;43.80;18.45;;;;;;;6.42;88.78;96625.28;2094470;28;20753;-60
2024/03/12 12:33:33;;;;;;;36.30;17.63;;;;;;;6.46;88.38;96614.78;2095523;28;20195;-60
2024/03/12 12:34:34;;;;;;;35.88;15.77;;;;;;;6.56;88.28;96619.69;2097278;28;20195;-60
2024/03/12 12:35:37;;;;;;;33.85;15.48;;;;;;;6.74;88.27;96618.31;2098175;28;20303;-60
2024/03/12 12:36:43;;;;;;;36.10;15.90;;;;;;;6.80;87.75;96618.13;2095098;28;20193;-60
2024/03/12 12:37:47;;;;;;;38.45;15.95;;;;;;;6.90;87.40;96622.13;2098828;28;20234;-60
2024/03/12 12:38:51;;;;;;;34.83;16.90;;;;;;;7.13;87.64;96613.63;2098757;28;20199;-64
2024/03/12 12:40:07;;;;;;;34.38;15.48;;;;;;;7.33;87.09;96610.41;2096850;28;20278;-64
2024/03/12 12:41:11;;;;;;;35.47;16.40;;;;;;;7.47;85.17;96609.94;2095340;28;20812;-63
2024/03/12 12:42:14;;;;;;;59.72;19.55;;;;;;;7.71;84.99;96609.19;2102513;28;20282;-63
2024/03/12 12:43:19;;;;;;;36.83;16.98;;;;;;;7.76;83.34;96612.50;2102149;28;20260;-60
2024/03/12 12:44:21;;;;;;;38.90;18.17;;;;;;;7.87;83.34;96588.72;2094840;28;20192;-60
2024/03/12 12:45:24;;;;;;;34.55;17.77;;;;;;;7.82;82.39;96604.47;2094857;28;20204;-60
2024/03/12 12:46:26;;;;;;;42.38;17.70;;;;;;;7.90;82.28;96604.19;2099141;28;20229;-60
2024/03/12 12:47:29;;;;;;;41.40;19.15;;;;;;;8.23;82.75;96609.97;2098751;28;20191;-60
2024/03/12 12:48:37;;;;;;;36.45;18.40;;;;;;;8.33;81.79;96598.34;2096204;28;20212;-60
2024/03/12 12:49:42;;;;;;;42.63;19.60;;;;;;;8.29;81.19;96599.34;2097885;28;20207;-60
2024/03/12 12:50:57;;;;;;;46.17;19.08;;;;;;;8.69;81.81;96602.25;2097462;28;20715;-61
2024/03/12 12:52:00;;;;;;;39.47;19.48;;;;;;;8.90;79.97;96612.75;2098876;28;20203;-61
2024/03/12 12:53:04;;;;;;;39.78;18.95;;;;;;;8.90;79.38;96610.16;2094664;28;20207;-60
2024/03/12 12:54:06;;;;;;;42.20;19.65;;;;;;;8.63;78.51;96607.69;2095399;28;20203;-61
2024/03/12 12:55:09;;;;;;;42.58;19.88;;;;;;;8.66;77.93;96607.59;2098854;28;20192;-60
2024/03/12 12:56:12;;;;;;;39.78;18.95;;;;;;;8.99;77.81;96610.66;2097831;28;20249;-60
2024/03/12 12:57:13;;;;;;;36.50;17.35;;;;;;;8.93;76.76;96610.88;2099948;28;20199;-60
2024/03/12 12:58:17;;;;;;;39.58;19.60;;;;;;;8.87;77.22;96605.91;2097548;28;20204;-60
2024/03/12 12:59:23;;;;;;;56.10;26.27;;;;;;;8.97;77.54;96616.81;2095887;28;20332;-59
2024/03/12 13:00:24;;;;;;;68.72;35.53;;;;;;;9.02;76.98;96612.28;2097473;28;20295;-62
2024/03/12 13:01:26;;;;;;;46.45;22.55;;;;;;;8.97;77.41;96602.03;2095656;28;20802;-60
2024/03/12 13:02:30;;;;;;;41.08;17.80;;;;;;;8.79;76.65;96603.59;2098025;28;20278;-60
2024/03/12 13:03:39;;;;;;;38.45;19.17;;;;;;;9.00;76.29;96616.69;2098738;28;20330;-60
2024/03/12 13:04:41;;;;;;;50.15;23.60;;;;;;;9.06;76.40;96610.41;2094688;28;20203;-62
2024/03/12 13:05:44;;;;;;;50.67;24.85;;;;;;;8.96;75.98;96616.00;2094465;28;20702;-62
2024/03/12 13:06:46;;;;;;;53.13;27.92;;;;;;;9.05;76.85;96614.75;2097999;28;20188;-62
2024/03/12 13:07:47;;;;;;;36.53;19.38;;;;;;;9.06;76.40;96607.81;2098424;28;20208;-62
2024/03/12 13:08:53;;;;;;;37.22;18.80;;;;;;;9.13;75.97;96614.47;2098363;28;20608;-62
2024/03/12 13:09:55;;;;;;;43.72;21.70;;;;;;;9.08;75.03;96619.03;2099088;28;20615;-61
2024/03/12 13:11:08;;;;;;;37.53;19.15;;;;;;;9.03;75.68;96613.13;2096663;28;20230;-62
2024/03/12 13:12:11;;;;;;;39.83;20.90;;;;;;;8.95;76.08;96603.88;2097795;28;20199;-62
2024/03/12 13:13:12;;;;;;;37.85;19.27;;;;;;;8.86;76.46;96612.03;2097473;28;20734;-62
2024/03/12 13:14:15;;;;;;;38.35;18.83;;;;;;;8.69;76.46;96615.28;2097635;28;20221;-61
2024/03/12 13:15:27;;;;;;;38.83;18.73;;;;;;;8.60;77.01;96608.66;2098602;28;20223;-62
2024/03/12 13:16:29;;;;;;;37.53;19.08;;;;;;;8.37;76.70;96608.63;2095916;28;20330;-62
2024/03/12 13:17:31;;;;;;;34.28;16.80;;;;;;;8.38;76.86;96612.91;2094704;28;20196;-62
2024/03/12 13:18:33;;;;;;;43.05;18.98;;;;;;;8.31;77.28;96610.53;2095150;28;21001;-62
2024/03/12 13:19:34;;;;;;;39.70;18.25;;;;;;;8.42;77.57;96617.13;2097676;28;20291;-67
2024/03/12 13:20:36;;;;;;;37.35;18.65;;;;;;;8.04;77.05;96590.72;2095587;28;20223;-67
2024/03/12 13:21:37;;;;;;;39.90;16.88;;;;;;;8.40;77.78;96605.91;2097190;28;20207;-67
2024/03/12 13:22:39;;;;;;;36.78;17.27;;;;;;;8.39;77.62;96599.84;2098824;28;20210;-67
2024/03/12 13:23:45;;;;;;;41.88;18.20;;;;;;;8.33;77.99;96606.13;2097798;28;20342;-67
2024/03/12 13:24:47;;;;;;;40.80;17.95;;;;;;;8.30;78.07;96616.66;2099073;28;20199;-67
2024/03/12 13:25:48;;;;;;;37.47;18.60;;;;;;;8.17;77.53;96612.78;2094472;28;20246;-67
2024/03/12 13:26:49;;;;;;;47.30;19.35;;;;;;;8.13;78.74;96613.81;2096805;28;20638;-67
2024/03/12 13:27:51;;;;;;;39.55;21.55;;;;;;;8.03;78.99;96615.88;2096990;28;20196;-67
2024/03/12 13:28:55;;;;;;;36.30;18.25;;;;;;;7.96;79.74;96616.97;2096587;28;20311;-67
2024/03/12 13:29:57;;;;;;;35.78;17.52;;;;;;;7.92;80.42;96598.06;2095656;28;20299;-67
2024/03/12 13:31:00;;;;;;;38.10;18.75;;;;;;;7.92;80.16;96607.59;2094884;28;20307;-67
2024/03/12 13:32:02;;;;;;;42.25;18.48;;;;;;;7.96;80.42;96615.25;2098910;28;20195;-67
2024/03/12 13:33:03;;;;;;;39.60;19.20;;;;;;;7.96;79.55;96622.19;2099183;28;20196;-67
2024/03/12 14:26:08;;;;;;;22.98;11.70;;;;;;;6.14;91.60;96650.22;2103238;27;20912;-62
2024/03/12 14:28:52;;;;;;;25.77;11.63;;;;;;;6.19;90.96;96635.38;2107350;27;20525;-61
2024/03/12 14:31:41;;;;;;;59.95;24.10;;;;;;;6.16;90.02;96630.31;2106794;27;20500;-62
